Time;durP1;ratioP1;P1;durP2;ratioP2;P2;SDS_P1;SDS_P2;PMS_P1;PMS_P2;Temp;Humidity;BMP_temperature;BMP_pressure;BME280_temperature;BME280_humidity;BME280_pressure;Samples;Min_cycle;Max_cycle;Signal;HPM_P1;HPM_P2
2021/09/04 00:00:12;;;;;;;12.82;5.82;;;;;;;14.41;88.04;96390.63;4975657;28;20212;-71
2021/09/04 00:02:39;;;;;;;8.13;5.43;;;;;;;14.30;87.91;96385.06;4975023;28;20211;-71
2021/09/04 00:05:08;;;;;;;7.78;5.18;;;;;;;14.43;88.11;96385.91;4975699;28;20230;-71
2021/09/04 00:07:34;;;;;;;9.32;4.85;;;;;;;14.40;86.08;96390.81;4974199;28;20234;-71
2021/09/04 00:10:01;;;;;;;6.15;4.40;;;;;;;14.44;84.55;96389.41;4975376;28;20203;-71
2021/09/04 00:12:28;;;;;;;7.47;4.75;;;;;;;14.48;83.82;96385.34;4974772;28;21213;-71
2021/09/04 00:14:55;;;;;;;8.77;4.50;;;;;;;14.50;84.37;96399.22;4975724;28;20199;-71
2021/09/04 00:17:21;;;;;;;7.45;4.78;;;;;;;14.11;85.25;96399.00;4974007;28;20234;-71
2021/09/04 00:19:48;;;;;;;7.10;4.35;;;;;;;14.20;85.12;96392.53;4975198;28;20246;-71
2021/09/04 00:22:16;;;;;;;8.57;4.90;;;;;;;14.20;87.64;96390.69;4975119;28;20203;-71
2021/09/04 00:24:43;;;;;;;9.63;6.15;;;;;;;14.04;89.03;96392.81;4975158;28;20582;-71
2021/09/04 00:27:10;;;;;;;9.73;5.88;;;;;;;14.24;87.85;96388.47;4973873;28;20226;-71
2021/09/04 00:29:37;;;;;;;8.45;5.72;;;;;;;14.28;86.84;96384.41;4975184;28;20700;-71
2021/09/04 00:32:04;;;;;;;8.75;4.88;;;;;;;14.24;86.22;96385.81;4974795;28;20583;-71
2021/09/04 00:34:31;;;;;;;10.13;4.95;;;;;;;14.00;85.65;96388.91;4974979;28;20207;-71
2021/09/04 00:36:58;;;;;;;6.78;4.50;;;;;;;14.11;85.28;96380.44;4973976;28;20227;-71
2021/09/04 00:39:26;;;;;;;6.75;4.72;;;;;;;14.19;85.01;96385.59;4978338;28;20218;-71
2021/09/04 00:41:52;;;;;;;9.00;5.07;;;;;;;14.18;85.26;96392.72;4978224;28;20214;-71
2021/09/04 00:44:21;;;;;;;8.63;4.57;;;;;;;14.33;84.60;96392.59;4978483;28;20214;-71
2021/09/04 00:46:48;;;;;;;8.98;4.80;;;;;;;14.06;84.41;96393.44;4977810;28;20226;-71
2021/09/04 00:49:14;;;;;;;8.32;4.38;;;;;;;13.93;85.04;96388.06;4977727;28;20206;-71
2021/09/04 00:51:41;;;;;;;6.55;4.40;;;;;;;13.99;85.14;96387.28;4978025;28;21139;-71
2021/09/04 00:54:08;;;;;;;7.28;4.38;;;;;;;14.19;83.92;96380.28;4978669;28;20573;-71
2021/09/04 00:56:38;;;;;;;11.70;4.82;;;;;;;14.17;83.51;96384.97;4977221;28;20223;-71
2021/09/04 00:59:07;;;;;;;7.05;4.55;;;;;;;13.92;84.44;96388.25;4977127;28;20694;-71
2021/09/04 01:01:34;;;;;;;12.17;5.83;;;;;;;13.73;86.47;96383.63;4978569;28;20222;-71
2021/09/04 01:04:01;;;;;;;8.05;5.47;;;;;;;13.74;88.34;96388.72;4977890;28;20974;-71
2021/09/04 01:06:28;;;;;;;11.68;5.97;;;;;;;13.89;87.74;96388.66;4977332;28;20242;-71
2021/09/04 01:08:55;;;;;;;9.40;5.90;;;;;;;13.91;87.01;96382.13;4977515;28;20203;-71
2021/09/04 01:11:23;;;;;;;8.83;5.47;;;;;;;13.82;86.50;96385.13;4978423;28;20218;-71
2021/09/04 01:13:51;;;;;;;9.25;5.68;;;;;;;13.92;85.80;96377.66;4977472;28;20250;-71
2021/09/04 01:16:18;;;;;;;11.13;5.72;;;;;;;13.62;88.01;96373.53;4977670;28;20555;-71
2021/09/04 01:18:44;;;;;;;8.93;5.28;;;;;;;13.60;86.79;96373.75;4977383;28;20207;-71
2021/09/04 01:21:11;;;;;;;8.25;5.07;;;;;;;13.76;85.31;96373.47;4977512;28;20199;-71
2021/09/04 01:23:39;;;;;;;7.13;4.55;;;;;;;13.79;84.75;96377.56;4977934;28;20943;-71
2021/09/04 01:26:08;;;;;;;8.50;5.20;;;;;;;13.83;86.22;96379.63;4976872;28;20227;-71
2021/09/04 01:28:35;;;;;;;8.80;5.50;;;;;;;13.65;87.34;96379.28;4977571;28;20207;-71
2021/09/04 01:31:02;;;;;;;11.20;4.47;;;;;;;13.81;84.32;96372.88;4976947;28;20206;-71
2021/09/04 01:33:29;;;;;;;7.05;4.65;;;;;;;13.67;83.94;96368.50;4977573;28;20215;-71
2021/09/04 01:35:55;;;;;;;7.87;4.70;;;;;;;13.53;83.66;96362.28;4977818;28;20230;-71
2021/09/04 01:38:22;;;;;;;6.72;4.95;;;;;;;13.48;84.92;96361.25;4977057;28;20211;-71
2021/09/04 01:40:48;;;;;;;8.48;5.45;;;;;;;13.54;84.48;96357.81;4976976;28;20223;-71
2021/09/04 01:43:16;;;;;;;8.10;5.13;;;;;;;13.56;84.92;96353.16;4977620;28;20206;-71
2021/09/04 01:45:43;;;;;;;7.85;4.63;;;;;;;13.40;84.31;96356.91;4976015;28;20262;-71
2021/09/04 01:48:09;;;;;;;7.85;4.68;;;;;;;13.45;84.41;96349.22;4977162;28;20207;-71
2021/09/04 01:50:36;;;;;;;7.27;4.97;;;;;;;13.46;84.38;96348.16;4976360;28;20213;-71
2021/09/04 01:53:02;;;;;;;7.35;4.97;;;;;;;13.34;83.83;96350.72;4977776;28;20207;-71
2021/09/04 01:55:29;;;;;;;8.40;4.47;;;;;;;13.41;83.40;96342.63;4976228;28;20222;-71
2021/09/04 01:57:55;;;;;;;8.48;5.20;;;;;;;13.35;83.04;96352.34;4977369;28;20963;-71
2021/09/04 02:00:23;;;;;;;10.05;5.60;;;;;;;13.28;84.14;96351.50;4977080;28;20652;-71
2021/09/04 02:02:49;;;;;;;13.23;5.63;;;;;;;13.16;85.93;96347.72;4977472;28;20203;-71
2021/09/04 02:05:16;;;;;;;10.18;6.00;;;;;;;12.98;86.92;96345.53;4975900;28;20219;-71
2021/09/04 02:07:42;;;;;;;10.10;5.75;;;;;;;13.17;85.51;96344.06;4976661;28;20223;-71
2021/09/04 02:10:10;;;;;;;9.20;5.65;;;;;;;13.35;84.82;96341.78;4975985;28;20210;-71
2021/09/04 02:12:37;;;;;;;8.33;5.40;;;;;;;13.10;85.12;96337.91;4974636;28;20203;-71
2021/09/04 02:15:07;;;;;;;9.90;6.00;;;;;;;13.07;85.14;96332.97;4976598;28;20199;-71
2021/09/04 02:17:35;;;;;;;12.27;5.60;;;;;;;13.17;85.78;96342.22;4976004;28;20234;-71
2021/09/04 02:20:02;;;;;;;8.93;5.60;;;;;;;13.13;86.62;96338.31;4976908;28;20199;-71
2021/09/04 02:22:29;;;;;;;11.73;6.40;;;;;;;13.10;87.83;96341.34;4976906;28;20207;-71
2021/09/04 02:24:55;;;;;;;8.77;5.13;;;;;;;13.16;85.14;96332.66;4976615;28;20210;-71
2021/09/04 02:27:21;;;;;;;10.40;5.40;;;;;;;13.21;83.78;96334.72;4975929;28;20227;-71
2021/09/04 02:29:48;;;;;;;10.15;5.68;;;;;;;13.10;84.11;96332.63;4976572;28;20210;-71
2021/09/04 02:32:15;;;;;;;9.77;6.10;;;;;;;13.07;85.87;96327.69;4976244;28;20214;-71
2021/09/04 02:34:42;;;;;;;8.97;5.70;;;;;;;13.20;85.78;96338.38;4976929;28;20297;-71
2021/09/04 02:37:09;;;;;;;8.30;5.03;;;;;;;13.07;85.29;96338.25;4975116;28;20220;-71
2021/09/04 02:39:35;;;;;;;10.77;5.33;;;;;;;12.79;85.78;96332.03;4976671;28;20207;-71
2021/09/04 02:42:02;;;;;;;8.53;5.53;;;;;;;12.76;86.63;96335.06;4976274;28;20682;-71
2021/09/04 02:44:29;;;;;;;9.57;5.90;;;;;;;12.98;86.26;96334.09;4977003;28;20211;-71
2021/09/04 02:46:56;;;;;;;12.47;5.33;;;;;;;12.81;86.50;96337.97;4975081;28;20224;-73
2021/09/04 02:49:22;;;;;;;8.20;5.13;;;;;;;12.77;86.41;96336.72;4976484;28;20211;-73
2021/09/04 02:51:50;;;;;;;8.27;5.20;;;;;;;13.02;85.12;96330.06;4976371;28;20207;-73
2021/09/04 02:54:17;;;;;;;8.67;4.90;;;;;;;12.93;84.19;96326.75;4976200;28;20207;-73
2021/09/04 02:56:43;;;;;;;7.67;4.67;;;;;;;12.79;84.67;96330.25;4975251;28;20231;-70
2021/09/04 02:59:10;;;;;;;8.50;4.75;;;;;;;12.89;84.99;96324.66;4976090;28;20203;-71
2021/09/04 03:01:36;;;;;;;9.35;5.63;;;;;;;12.73;85.86;96329.34;4975203;28;20322;-74
2021/09/04 03:04:03;;;;;;;13.77;6.75;;;;;;;12.72;89.68;96325.88;4976061;28;20203;-73
2021/09/04 03:06:29;;;;;;;10.90;6.33;;;;;;;12.72;88.66;96322.44;4975510;28;20246;-74
2021/09/04 03:08:57;;;;;;;10.23;6.20;;;;;;;12.73;88.71;96324.88;4976708;28;20206;-73
2021/09/04 03:11:24;;;;;;;9.53;6.07;;;;;;;12.52;88.28;96331.97;4976287;28;20825;-73
2021/09/04 03:13:50;;;;;;;12.53;5.53;;;;;;;12.64;88.00;96331.31;4976285;28;20203;-73
2021/09/04 03:16:17;;;;;;;8.47;5.73;;;;;;;12.55;88.34;96335.06;4975942;28;20223;-74
2021/09/04 03:18:44;;;;;;;9.07;6.05;;;;;;;12.22;87.86;96331.22;4975705;28;20222;-73
2021/09/04 03:21:11;;;;;;;9.90;5.47;;;;;;;12.35;86.99;96331.38;4975863;28;20211;-73
2021/09/04 03:23:37;;;;;;;9.77;6.30;;;;;;;12.48;87.44;96326.22;4977041;28;20211;-73
2021/09/04 03:26:05;;;;;;;8.50;5.87;;;;;;;12.78;86.13;96327.78;4975136;28;20265;-70
2021/09/04 03:28:32;;;;;;;10.40;5.40;;;;;;;12.30;86.51;96325.00;4975047;28;20207;-71
2021/09/04 03:30:58;;;;;;;11.07;5.77;;;;;;;12.14;86.74;96333.13;4976328;28;20211;-72
2021/09/04 03:33:25;;;;;;;11.67;5.97;;;;;;;12.40;86.96;96329.00;4975926;28;20570;-70
2021/09/04 03:35:51;;;;;;;11.75;6.80;;;;;;;12.29;88.25;96337.38;4975123;28;20309;-70
2021/09/04 03:38:17;;;;;;;13.18;7.10;;;;;;;12.38;88.26;96336.28;4975329;28;20204;-71
2021/09/04 03:40:44;;;;;;;10.47;6.47;;;;;;;12.46;86.32;96328.25;4976183;28;20207;-70
2021/09/04 03:43:12;;;;;;;13.00;5.97;;;;;;;12.40;86.36;96334.28;4974884;28;20218;-71
2021/09/04 03:45:38;;;;;;;10.30;6.83;;;;;;;12.32;87.28;96337.03;4975236;28;20230;-70
2021/09/04 03:48:05;;;;;;;7.17;5.53;;;;;;;12.16;85.83;96331.94;4975347;28;20214;-70
2021/09/04 03:50:32;;;;;;;8.47;5.67;;;;;;;12.30;85.24;96338.22;4975375;28;20229;-72
2021/09/04 03:52:58;;;;;;;10.85;6.30;;;;;;;12.42;85.12;96328.78;4975559;28;20219;-72
2021/09/04 03:55:25;;;;;;;10.43;5.80;;;;;;;12.44;85.52;96340.81;4975038;28;20218;-73
2021/09/04 03:57:51;;;;;;;9.63;6.22;;;;;;;12.45;85.67;96331.91;4974815;28;20208;-73
2021/09/04 04:00:19;;;;;;;11.73;6.30;;;;;;;12.57;84.99;96333.03;4975001;28;20583;-73
2021/09/04 04:02:46;;;;;;;11.70;6.10;;;;;;;12.45;86.33;96331.91;4975491;28;20203;-74
2021/09/04 04:05:13;;;;;;;12.27;6.30;;;;;;;12.44;86.07;96338.19;4974786;28;20276;-71
2021/09/04 04:07:39;;;;;;;9.37;5.73;;;;;;;12.50;84.41;96336.59;4974977;28;20227;-73
2021/09/04 04:10:07;;;;;;;10.73;5.90;;;;;;;12.72;84.34;96333.00;4974952;28;20203;-74
2021/09/04 04:12:34;;;;;;;11.23;4.87;;;;;;;12.51;84.24;96325.88;4975923;28;20702;-73
2021/09/04 04:15:00;;;;;;;11.57;5.27;;;;;;;12.50;84.63;96333.97;4978367;28;20551;-74
2021/09/04 04:17:30;;;;;;;11.03;5.40;;;;;;;12.33;86.25;96333.38;4978198;28;20238;-74
2021/09/04 04:19:56;;;;;;;9.47;6.03;;;;;;;12.20;87.25;96340.31;4978349;28;20295;-74
2021/09/04 04:22:23;;;;;;;16.53;6.37;;;;;;;12.06;89.11;96340.34;4978785;28;20584;-74
2021/09/04 04:24:49;;;;;;;36.67;7.20;;;;;;;11.85;91.16;96343.72;4978610;28;20210;-74
2021/09/04 04:27:16;;;;;;;15.97;6.33;;;;;;;11.94;91.50;96333.88;4978116;28;20234;-74
2021/09/04 04:29:42;;;;;;;16.13;6.67;;;;;;;12.24;89.96;96336.31;4977933;28;20442;-73
2021/09/04 04:32:09;;;;;;;10.13;6.27;;;;;;;12.33;89.41;96333.38;4978832;28;20250;-74
2021/09/04 04:34:37;;;;;;;10.93;5.87;;;;;;;12.63;88.00;96329.66;4978167;28;20242;-74
2021/09/04 04:37:04;;;;;;;15.47;7.00;;;;;;;12.65;88.86;96327.63;4978469;28;20595;-71
2021/09/04 04:39:30;;;;;;;14.03;7.40;;;;;;;12.62;91.18;96337.78;4978040;28;20214;-71
2021/09/04 04:41:57;;;;;;;11.63;6.27;;;;;;;12.70;88.26;96330.53;4977599;28;20226;-71
2021/09/04 04:44:23;;;;;;;16.53;6.60;;;;;;;12.71;87.14;96334.81;4978669;28;20215;-71
2021/09/04 04:46:50;;;;;;;17.23;6.90;;;;;;;12.40;89.23;96329.00;4977727;28;20238;-73
2021/09/04 04:49:16;;;;;;;11.93;6.63;;;;;;;12.54;88.57;96330.78;4974838;28;20210;-71
2021/09/04 04:51:44;;;;;;;13.70;6.63;;;;;;;12.55;90.29;96335.06;4977986;28;20200;-71
2021/09/04 04:54:11;;;;;;;16.77;6.60;;;;;;;12.55;89.71;96332.41;4978126;28;20210;-74
2021/09/04 04:56:37;;;;;;;20.10;7.47;;;;;;;12.46;91.15;96333.53;4976994;28;20222;-74
2021/09/04 04:59:04;;;;;;;19.03;7.30;;;;;;;12.43;90.80;96336.53;4978460;28;20210;-73
2021/09/04 05:01:30;;;;;;;14.10;6.63;;;;;;;12.62;89.50;96333.31;4978262;28;20211;-74
2021/09/04 05:03:57;;;;;;;15.67;6.57;;;;;;;12.51;88.88;96339.09;4978114;28;20199;-74
2021/09/04 05:06:23;;;;;;;13.43;6.33;;;;;;;12.45;88.36;96337.19;4976719;28;20726;-74
2021/09/04 05:08:51;;;;;;;14.00;6.00;;;;;;;12.48;88.80;96331.50;4978029;28;20215;-71
2021/09/04 05:11:17;;;;;;;12.17;6.40;;;;;;;12.33;88.24;96336.03;4977439;28;20206;-71
2021/09/04 05:13:44;;;;;;;14.93;7.07;;;;;;;12.45;88.33;96331.91;4977436;28;20204;-71
2021/09/04 05:16:11;;;;;;;15.47;7.80;;;;;;;12.38;89.36;96330.19;4976919;28;20238;-71
2021/09/04 05:18:37;;;;;;;16.97;7.70;;;;;;;12.51;89.66;96336.44;4977270;28;20199;-71
2021/09/04 05:21:04;;;;;;;20.17;7.83;;;;;;;12.75;89.19;96337.91;4977453;28;20215;-71
2021/09/04 05:23:30;;;;;;;18.30;9.00;;;;;;;12.63;89.94;96334.13;4977131;28;20211;-71
2021/09/04 05:25:58;;;;;;;24.50;9.73;;;;;;;12.77;90.62;96347.31;4975657;28;20254;-71
2021/09/04 05:28:25;;;;;;;17.97;8.50;;;;;;;12.52;90.59;96343.34;4978007;28;20207;-71
2021/09/04 05:30:51;;;;;;;16.60;8.27;;;;;;;12.55;90.76;96348.28;4977630;28;20207;-71
2021/09/04 05:33:18;;;;;;;15.77;8.43;;;;;;;12.53;91.76;96349.47;4977833;28;20207;-71
2021/09/04 05:35:44;;;;;;;16.80;9.10;;;;;;;12.73;91.38;96346.03;4976686;28;20200;-70
2021/09/04 05:38:11;;;;;;;14.80;8.43;;;;;;;12.88;91.99;96349.47;4977313;28;20207;-70
2021/09/04 05:40:37;;;;;;;16.58;8.32;;;;;;;12.87;92.16;96347.84;4977602;28;20203;-71
2021/09/04 05:43:05;;;;;;;17.97;9.67;;;;;;;13.02;93.35;96346.78;4977481;28;20199;-70
2021/09/04 05:45:32;;;;;;;17.83;9.43;;;;;;;12.96;92.91;96346.72;4976861;28;20214;-70
2021/09/04 05:47:58;;;;;;;20.77;9.70;;;;;;;12.85;93.75;96347.19;4976664;28;20223;-69
2021/09/04 05:50:25;;;;;;;16.70;9.02;;;;;;;12.92;94.19;96340.19;4977859;28;20207;-69
2021/09/04 05:52:51;;;;;;;18.38;9.27;;;;;;;13.06;94.02;96345.38;4977038;28;20203;-70
2021/09/04 05:55:18;;;;;;;16.23;9.20;;;;;;;13.23;93.37;96352.06;4976808;28;20211;-70
2021/09/04 05:57:44;;;;;;;20.10;9.47;;;;;;;13.15;94.14;96348.72;4977024;28;20250;-71
2021/09/04 06:00:13;;;;;;;18.33;9.60;;;;;;;13.38;94.63;96352.81;4977592;28;20218;-70
2021/09/04 06:02:42;;;;;;;16.00;8.43;;;;;;;13.35;95.08;96355.81;4976343;28;20699;-70
2021/09/04 06:05:09;;;;;;;17.52;9.27;;;;;;;13.59;93.67;96350.94;4976760;28;20262;-71
2021/09/04 06:07:36;;;;;;;14.77;9.10;;;;;;;13.54;94.46;96353.34;4976181;28;20241;-71
2021/09/04 06:10:03;;;;;;;19.53;9.43;;;;;;;13.43;93.85;96351.22;4977458;28;20207;-70
2021/09/04 06:12:29;;;;;;;14.70;8.93;;;;;;;13.47;93.58;96351.66;4976897;28;20208;-74
2021/09/04 06:14:55;;;;;;;15.75;8.90;;;;;;;13.38;94.05;96353.59;4977005;28;20559;-73
2021/09/04 06:17:23;;;;;;;12.83;8.67;;;;;;;13.58;94.57;96354.59;4975870;28;20357;-72
2021/09/04 06:19:50;;;;;;;18.27;9.50;;;;;;;13.37;95.30;96356.44;4976885;28;20210;-70
2021/09/04 06:22:16;;;;;;;17.03;10.40;;;;;;;13.52;95.05;96355.34;4976323;28;20203;-70
2021/09/04 06:24:43;;;;;;;16.67;9.13;;;;;;;13.60;94.78;96349.91;4977166;28;20565;-70
2021/09/04 06:27:09;;;;;;;15.77;9.50;;;;;;;13.68;94.74;96357.72;4975769;28;20231;-70
2021/09/04 06:29:36;;;;;;;13.68;9.38;;;;;;;13.78;93.90;96362.69;4976708;28;20207;-69
2021/09/04 06:32:05;;;;;;;15.25;10.40;;;;;;;14.00;94.21;96354.44;4976122;28;20211;-70
2021/09/04 06:34:32;;;;;;;15.07;9.90;;;;;;;14.24;93.40;96354.84;4976667;28;20268;-70
2021/09/04 06:36:59;;;;;;;17.65;9.80;;;;;;;14.16;92.07;96359.50;4975297;28;20226;-71
2021/09/04 06:39:25;;;;;;;15.40;9.02;;;;;;;14.28;92.27;96353.44;4976760;28;20211;-70
2021/09/04 06:41:52;;;;;;;15.57;9.77;;;;;;;14.39;93.20;96362.66;4976200;28;20215;-71
2021/09/04 06:44:18;;;;;;;15.57;9.05;;;;;;;14.46;92.44;96358.19;4976744;28;20230;-71
2021/09/04 06:46:45;;;;;;;18.10;10.20;;;;;;;14.38;93.25;96359.16;4974957;28;20230;-72
2021/09/04 06:49:11;;;;;;;15.60;10.60;;;;;;;14.43;94.29;96355.94;4976015;28;20204;-71
2021/09/04 06:51:39;;;;;;;17.00;11.25;;;;;;;14.71;94.53;96358.31;4976845;28;20582;-71
2021/09/04 06:54:06;;;;;;;18.25;11.18;;;;;;;14.46;97.67;96359.03;4975458;28;20214;-71
2021/09/04 06:56:32;;;;;;;19.85;11.73;;;;;;;14.79;95.25;96358.13;4975261;28;20235;-71
2021/09/04 06:58:59;;;;;;;20.60;12.13;;;;;;;14.86;95.01;96356.28;4975240;28;20212;-71
2021/09/04 07:01:25;;;;;;;18.98;12.63;;;;;;;14.95;94.90;96360.41;4975376;28;20215;-71
2021/09/04 07:03:52;;;;;;;19.80;12.20;;;;;;;15.09;93.78;96348.00;4974955;28;20207;-71
2021/09/04 07:06:18;;;;;;;17.63;12.18;;;;;;;15.38;92.36;96361.75;4975943;28;20242;-71
2021/09/04 07:08:46;;;;;;;19.60;11.52;;;;;;;15.59;91.26;96356.22;4975119;28;20203;-71
2021/09/04 07:11:12;;;;;;;19.50;12.13;;;;;;;15.50;91.32;96362.75;4975365;28;20686;-71
2021/09/04 07:13:39;;;;;;;20.83;12.70;;;;;;;15.73;90.99;96356.00;4976403;28;20207;-71
2021/09/04 07:16:06;;;;;;;18.98;12.18;;;;;;;15.93;91.34;96360.28;4975377;28;20237;-70
2021/09/04 07:18:32;;;;;;;19.67;12.57;;;;;;;15.54;93.27;96363.97;4975500;28;21417;-71
2021/09/04 07:20:59;;;;;;;21.17;13.25;;;;;;;15.83;93.10;96360.91;4975938;28;20211;-69
2021/09/04 07:23:25;;;;;;;23.25;13.50;;;;;;;16.07;93.66;96356.56;4975952;28;20207;-71
2021/09/04 07:25:53;;;;;;;23.50;13.70;;;;;;;16.22;93.77;96365.13;4974560;28;20246;-71
2021/09/04 07:28:20;;;;;;;20.90;13.20;;;;;;;16.26;93.58;96361.06;4975598;28;20223;-70
2021/09/04 07:30:46;;;;;;;20.92;12.70;;;;;;;16.37;93.06;96357.78;4975658;28;20207;-70
2021/09/04 07:33:13;;;;;;;21.95;13.35;;;;;;;16.20;95.83;96361.06;4975571;28;20206;-71
2021/09/04 07:35:39;;;;;;;21.05;12.63;;;;;;;16.48;94.46;96354.44;4975015;28;20203;-70
2021/09/04 07:38:06;;;;;;;19.60;13.15;;;;;;;16.56;94.46;96352.38;4976876;28;20210;-71
2021/09/04 07:40:32;;;;;;;21.75;13.05;;;;;;;16.83;92.82;96363.72;4977585;28;20207;-72
2021/09/04 07:43:02;;;;;;;21.77;13.63;;;;;;;17.11;92.83;96362.34;4975392;28;20215;-71
2021/09/04 07:45:29;;;;;;;21.42;13.32;;;;;;;16.98;93.29;96356.25;4976364;28;20207;-71
2021/09/04 07:47:55;;;;;;;24.65;14.30;;;;;;;17.11;93.84;96360.50;4975913;28;20231;-71
2021/09/04 07:50:22;;;;;;;21.10;13.43;;;;;;;17.26;91.91;96368.19;4977617;28;20218;-71
2021/09/04 07:52:50;;;;;;;21.20;13.60;;;;;;;17.31;92.22;96363.06;4977713;28;20229;-71
2021/09/04 07:55:17;;;;;;;21.75;13.95;;;;;;;17.52;90.37;96366.19;4976547;28;20245;-71
2021/09/04 07:57:43;;;;;;;24.70;14.63;;;;;;;17.67;88.55;96363.19;4976960;28;20215;-71
2021/09/04 08:00:14;;;;;;;28.67;15.48;;;;;;;18.08;87.95;96359.75;4977274;28;20219;-71
2021/09/04 08:02:41;;;;;;;24.23;14.82;;;;;;;18.18;85.70;96367.28;4977235;28;20250;-70
2021/09/04 08:05:09;;;;;;;25.40;15.30;;;;;;;18.40;85.16;96359.44;4976990;28;20291;-70
2021/09/04 08:07:35;;;;;;;27.55;15.50;;;;;;;18.41;85.56;96369.06;4976453;28;20227;-71
2021/09/04 08:10:02;;;;;;;25.70;15.02;;;;;;;18.59;83.01;96365.59;4978868;28;20207;-71
2021/09/04 08:12:28;;;;;;;24.70;15.02;;;;;;;18.64;82.87;96368.41;4976512;28;20719;-71
2021/09/04 08:14:55;;;;;;;27.85;14.05;;;;;;;18.47;85.31;96373.53;4976900;28;20204;-74
2021/09/04 08:17:23;;;;;;;25.50;14.65;;;;;;;19.05;85.65;96364.81;4975919;28;20227;-71
2021/09/04 08:19:49;;;;;;;26.63;15.55;;;;;;;19.26;85.78;96364.34;4974067;28;20953;-70
2021/09/04 08:22:16;;;;;;;26.80;14.88;;;;;;;19.20;81.07;96369.78;4977535;28;20207;-71
2021/09/04 08:24:42;;;;;;;24.10;14.57;;;;;;;19.20;82.57;96375.13;4979026;28;20206;-71
2021/09/04 08:27:09;;;;;;;24.30;13.77;;;;;;;19.37;79.25;96374.22;4977802;28;20722;-71
2021/09/04 08:29:35;;;;;;;23.25;13.73;;;;;;;19.45;80.02;96370.44;4979452;28;20223;-71
2021/09/04 08:32:02;;;;;;;24.75;13.35;;;;;;;19.31;78.70;96372.50;4979499;28;20210;-71
2021/09/04 08:34:30;;;;;;;22.20;13.52;;;;;;;19.69;80.86;96365.72;4979808;28;20211;-71
2021/09/04 08:36:57;;;;;;;24.05;12.77;;;;;;;19.82;77.89;96360.16;4977998;28;20227;-71
2021/09/04 08:39:23;;;;;;;21.80;13.18;;;;;;;20.13;81.24;96370.56;4979754;28;20203;-71
2021/09/04 08:41:50;;;;;;;20.35;12.30;;;;;;;20.43;77.77;96365.91;4980109;28;20203;-71
2021/09/04 08:44:16;;;;;;;21.27;12.43;;;;;;;20.55;77.69;96366.72;4980615;28;20200;-71
2021/09/04 08:46:43;;;;;;;22.00;12.98;;;;;;;20.68;78.13;96371.81;4979485;28;20227;-71
2021/09/04 08:49:09;;;;;;;20.80;11.70;;;;;;;20.62;77.01;96372.75;4980496;28;20227;-71
2021/09/04 08:51:37;;;;;;;18.70;10.90;;;;;;;21.08;74.76;96370.81;4982178;28;20583;-71
2021/09/04 08:54:04;;;;;;;18.33;10.63;;;;;;;21.29;71.97;96370.94;4979807;28;20211;-71
2021/09/04 08:56:31;;;;;;;18.33;10.18;;;;;;;21.16;73.09;96367.75;4980418;28;20227;-71
2021/09/04 08:58:57;;;;;;;19.98;10.70;;;;;;;21.26;74.50;96379.47;4981670;28;20788;-72
2021/09/04 09:01:26;;;;;;;15.55;9.98;;;;;;;21.62;72.22;96387.13;4984909;28;20207;-72
2021/09/04 09:03:55;;;;;;;18.67;10.02;;;;;;;21.71;71.02;96381.13;4983150;28;20230;-72
2021/09/04 09:06:26;;;;;;;15.85;8.75;;;;;;;21.87;72.30;96369.63;4984222;28;20234;-71
2021/09/04 09:08:54;;;;;;;16.90;9.45;;;;;;;21.87;69.20;96374.16;4984477;28;20227;-72
2021/09/04 09:11:21;;;;;;;14.35;8.70;;;;;;;21.84;67.79;96377.31;4983493;28;20704;-72
2021/09/04 09:13:49;;;;;;;16.38;8.50;;;;;;;21.90;68.77;96373.69;4983855;28;20207;-72
2021/09/04 09:16:16;;;;;;;15.57;8.25;;;;;;;21.97;68.37;96374.31;4982943;28;20579;-72
2021/09/04 09:18:55;;;;;;;14.45;7.82;;;;;;;22.01;66.94;96370.09;4982788;28;20207;-72
2021/09/04 09:21:21;;;;;;;12.82;7.50;;;;;;;21.70;68.26;96363.44;4984501;28;20211;-72
2021/09/04 09:24:08;;;;;;;12.90;7.72;;;;;;;22.24;68.40;96366.19;4984353;28;20223;-72
2021/09/04 09:26:34;;;;;;;17.20;8.45;;;;;;;22.24;68.55;96366.19;4983677;28;20354;-72
2021/09/04 09:29:15;;;;;;;14.20;8.13;;;;;;;22.67;68.76;96366.31;4984176;28;20826;-72
2021/09/04 09:31:41;;;;;;;13.68;7.45;;;;;;;21.97;67.80;96374.31;4984236;28;20211;-72
2021/09/04 09:34:09;;;;;;;11.18;7.18;;;;;;;22.32;70.03;96356.94;4986494;28;20212;-72
2021/09/04 09:36:50;;;;;;;11.35;7.63;;;;;;;22.84;65.01;96357.09;4986325;28;20236;-72
2021/09/04 09:39:26;;;;;;;15.25;8.48;;;;;;;23.15;68.87;96363.69;4983881;28;20214;-72
2021/09/04 09:41:53;;;;;;;13.10;8.07;;;;;;;22.70;66.15;96360.41;4984481;28;20215;-72
2021/09/04 09:44:22;;;;;;;14.02;8.27;;;;;;;22.17;68.32;96364.72;4985070;28;20770;-72
2021/09/04 09:46:50;;;;;;;12.20;8.18;;;;;;;22.42;68.59;96363.25;4985437;28;20711;-72
2021/09/04 09:49:17;;;;;;;18.73;9.27;;;;;;;22.52;70.07;96363.41;4982504;28;20235;-73
2021/09/04 09:51:44;;;;;;;15.63;8.85;;;;;;;22.62;69.42;96363.53;4977277;28;20230;-72
2021/09/04 09:54:11;;;;;;;14.50;8.45;;;;;;;22.96;66.99;96356.97;4976542;28;20239;-75
2021/09/04 09:56:40;;;;;;;13.98;8.48;;;;;;;23.13;66.37;96352.38;4976639;28;20254;-72
2021/09/04 09:59:12;;;;;;;14.45;9.10;;;;;;;23.16;65.77;96349.19;4977201;28;20357;-72
2021/09/04 10:01:40;;;;;;;12.75;8.43;;;;;;;23.30;68.06;96357.41;4977094;28;20279;-72
2021/09/04 10:04:10;;;;;;;13.38;7.50;;;;;;;23.55;63.95;96348.81;4977359;28;20200;-72
2021/09/04 10:06:36;;;;;;;11.40;7.20;;;;;;;23.35;60.94;96349.41;4977729;28;21565;-73
2021/09/04 10:09:04;;;;;;;15.07;8.07;;;;;;;23.38;62.79;96351.59;4976346;28;20230;-73
2021/09/04 10:11:30;;;;;;;18.25;8.45;;;;;;;23.47;62.02;96350.09;4976657;28;20204;-72
2021/09/04 10:13:58;;;;;;;13.70;7.88;;;;;;;23.81;61.32;96343.44;4977407;28;20203;-73
2021/09/04 10:16:25;;;;;;;11.30;7.35;;;;;;;23.57;61.73;96339.41;4975699;28;20230;-73
2021/09/04 10:18:52;;;;;;;12.60;7.90;;;;;;;23.92;62.13;96350.53;4974864;28;20200;-72
2021/09/04 10:21:19;;;;;;;13.27;7.35;;;;;;;23.83;60.79;96345.84;4976913;28;20207;-72
2021/09/04 10:23:50;;;;;;;13.25;8.25;;;;;;;24.21;60.24;96341.03;4976836;28;20203;-73
2021/09/04 10:26:28;;;;;;;13.10;8.43;;;;;;;24.06;61.56;96340.94;4975838;28;20223;-72
2021/09/04 10:29:03;;;;;;;14.13;7.50;;;;;;;24.12;60.85;96334.50;4976573;28;20691;-72
2021/09/04 10:31:48;;;;;;;12.55;6.10;;;;;;;24.38;56.61;96329.09;4976515;28;20207;-72
2021/09/04 10:34:17;;;;;;;11.85;6.35;;;;;;;24.56;56.58;96328.66;4976163;28;20239;-73
2021/09/04 10:37:01;;;;;;;12.88;6.30;;;;;;;24.81;56.51;96324.19;4976109;28;20228;-73
2021/09/04 10:39:46;;;;;;;12.18;5.50;;;;;;;25.08;55.45;96322.19;4975713;28;20203;-72
2021/09/04 10:42:15;;;;;;;9.30;5.60;;;;;;;25.10;55.05;96327.28;4976170;28;20414;-73
2021/09/04 10:44:43;;;;;;;9.43;5.50;;;;;;;24.66;58.18;96324.13;4977266;28;20681;-73
2021/09/04 10:47:10;;;;;;;10.13;5.82;;;;;;;24.70;57.66;96325.22;4975708;28;20230;-73
2021/09/04 10:49:42;;;;;;;8.38;5.65;;;;;;;25.00;57.91;96317.28;4976420;28;20223;-73
2021/09/04 10:52:09;;;;;;;9.20;5.43;;;;;;;24.73;58.55;96319.31;4976777;28;20573;-72
2021/09/04 10:55:02;;;;;;;9.40;5.88;;;;;;;24.97;53.49;96325.88;4976396;28;20774;-73
2021/09/04 10:57:44;;;;;;;10.50;5.78;;;;;;;25.36;53.22;96317.13;4975506;28;20231;-73
2021/09/04 11:00:20;;;;;;;11.30;5.20;;;;;;;25.10;52.28;96322.72;4975974;28;20924;-73
2021/09/04 11:02:49;;;;;;;7.35;4.55;;;;;;;25.05;53.64;96313.78;4975006;28;20198;-73
2021/09/04 11:05:52;;;;;;;8.00;5.03;;;;;;;25.40;50.90;96322.81;4973845;28;20217;-73
2021/09/04 11:08:44;;;;;;;9.55;4.80;;;;;;;25.61;48.44;96324.44;4976321;28;20238;-72
2021/09/04 11:11:17;;;;;;;8.02;5.00;;;;;;;25.70;52.85;96328.25;4975774;28;20303;-73
2021/09/04 11:13:44;;;;;;;7.53;5.00;;;;;;;25.43;54.24;96323.09;4975745;28;20214;-73
2021/09/04 11:16:36;;;;;;;6.97;4.80;;;;;;;25.52;52.46;96323.34;4975590;28;20227;-72
2021/09/04 11:19:10;;;;;;;7.82;5.07;;;;;;;25.56;52.45;96317.16;4973458;28;20207;-73
2021/09/04 11:21:54;;;;;;;9.80;5.65;;;;;;;25.53;51.75;96317.69;4975262;28;20582;-73
2021/09/04 11:24:24;;;;;;;7.68;5.05;;;;;;;25.71;54.79;96325.28;4976084;28;20218;-73
2021/09/04 11:26:54;;;;;;;6.45;4.13;;;;;;;25.48;48.32;96322.28;4975375;28;20227;-72
2021/09/04 11:29:20;;;;;;;8.52;4.82;;;;;;;24.97;48.16;96314.28;4975765;28;20231;-73